sensor_id;sensor_type;location;lat;lon;timestamp;pressure;altitude;pressure_sealevel;temperature;humidity
9110;BME280;4590;51.462;6.692;2023-07-13T00:00:14;101222.63;;;20.41;46.82
9110;BME280;4590;51.462;6.692;2023-07-13T00:02:42;101231.75;;;20.38;47.16
9110;BME280;4590;51.462;6.692;2023-07-13T00:05:08;101229.50;;;20.43;46.18
9110;BME280;4590;51.462;6.692;2023-07-13T00:07:34;101231.03;;;20.41;46.37
9110;BME280;4590;51.462;6.692;2023-07-13T00:09:59;101235.50;;;20.29;47.00
9110;BME280;4590;51.462;6.692;2023-07-13T00:12:27;101233.72;;;20.37;46.27
9110;BME280;4590;51.462;6.692;2023-07-13T00:14:55;101234.03;;;20.36;46.26
9110;BME280;4590;51.462;6.692;2023-07-13T00:17:21;101228.00;;;20.33;46.41
9110;BME280;4590;51.462;6.692;2023-07-13T00:19:46;101233.53;;;20.30;45.96
9110;BME280;4590;51.462;6.692;2023-07-13T00:22:12;101231.44;;;20.27;46.03
9110;BME280;4590;51.462;6.692;2023-07-13T00:24:37;101231.81;;;20.25;45.87
9110;BME280;4590;51.462;6.692;2023-07-13T00:27:07;101233.78;;;20.25;46.20
9110;BME280;4590;51.462;6.692;2023-07-13T00:29:32;101232.50;;;20.22;46.09
9110;BME280;4590;51.462;6.692;2023-07-13T00:31:59;101240.09;;;20.22;45.92
9110;BME280;4590;51.462;6.692;2023-07-13T00:34:24;101226.81;;;20.19;46.27
9110;BME280;4590;51.462;6.692;2023-07-13T00:36:49;101231.50;;;20.15;46.09
9110;BME280;4590;51.462;6.692;2023-07-13T00:39:14;101235.84;;;20.12;46.43
9110;BME280;4590;51.462;6.692;2023-07-13T00:41:40;101245.31;;;20.08;46.42
9110;BME280;4590;51.462;6.692;2023-07-13T00:44:15;101245.56;;;20.03;46.97
9110;BME280;4590;51.462;6.692;2023-07-13T00:46:40;101245.91;;;20.01;47.27
9110;BME280;4590;51.462;6.692;2023-07-13T00:49:08;101246.66;;;19.98;46.92
9110;BME280;4590;51.462;6.692;2023-07-13T00:51:41;101238.63;;;19.96;47.16
9110;BME280;4590;51.462;6.692;2023-07-13T00:54:11;101238.97;;;19.95;47.47
9110;BME280;4590;51.462;6.692;2023-07-13T00:56:39;101236.19;;;19.95;47.17
9110;BME280;4590;51.462;6.692;2023-07-13T00:59:07;101238.53;;;19.93;47.27
9110;BME280;4590;51.462;6.692;2023-07-13T01:01:33;101244.00;;;19.89;46.83
9110;BME280;4590;51.462;6.692;2023-07-13T01:03:59;101237.50;;;19.85;47.79
9110;BME280;4590;51.462;6.692;2023-07-13T01:06:24;101230.22;;;19.81;47.67
9110;BME280;4590;51.462;6.692;2023-07-13T01:08:50;101235.34;;;19.79;47.60
9110;BME280;4590;51.462;6.692;2023-07-13T01:11:20;101234.06;;;19.76;47.59
9110;BME280;4590;51.462;6.692;2023-07-13T01:13:47;101230.94;;;19.78;47.69
9110;BME280;4590;51.462;6.692;2023-07-13T01:16:23;101238.84;;;19.76;47.97
9110;BME280;4590;51.462;6.692;2023-07-13T01:18:49;101242.91;;;19.78;47.85
9110;BME280;4590;51.462;6.692;2023-07-13T01:21:14;101249.19;;;19.75;47.79
9110;BME280;4590;51.462;6.692;2023-07-13T01:23:39;101242.00;;;19.74;47.93
9110;BME280;4590;51.462;6.692;2023-07-13T01:26:05;101233.50;;;19.71;47.82
9110;BME280;4590;51.462;6.692;2023-07-13T01:28:30;101230.25;;;19.69;47.91
9110;BME280;4590;51.462;6.692;2023-07-13T01:30:57;101239.38;;;19.66;48.13
9110;BME280;4590;51.462;6.692;2023-07-13T01:33:23;101236.13;;;19.64;47.88
9110;BME280;4590;51.462;6.692;2023-07-13T01:35:49;101228.44;;;19.60;47.92
9110;BME280;4590;51.462;6.692;2023-07-13T01:38:16;101230.66;;;19.55;48.35
9110;BME280;4590;51.462;6.692;2023-07-13T01:40:43;101236.59;;;19.53;48.08
9110;BME280;4590;51.462;6.692;2023-07-13T01:43:08;101236.03;;;19.48;48.63
9110;BME280;4590;51.462;6.692;2023-07-13T01:45:33;101233.94;;;19.45;48.29
9110;BME280;4590;51.462;6.692;2023-07-13T01:47:59;101243.47;;;19.44;48.68
9110;BME280;4590;51.462;6.692;2023-07-13T01:50:25;101231.84;;;19.42;48.58
9110;BME280;4590;51.462;6.692;2023-07-13T01:52:51;101239.09;;;19.31;49.93
9110;BME280;4590;51.462;6.692;2023-07-13T01:55:16;101233.28;;;19.36;48.70
9110;BME280;4590;51.462;6.692;2023-07-13T01:57:42;101235.16;;;19.32;48.77
9110;BME280;4590;51.462;6.692;2023-07-13T02:00:09;101245.50;;;19.31;48.88
9110;BME280;4590;51.462;6.692;2023-07-13T02:02:35;101240.72;;;19.32;48.98
9110;BME280;4590;51.462;6.692;2023-07-13T02:05:00;101235.03;;;19.28;49.22
9110;BME280;4590;51.462;6.692;2023-07-13T02:07:26;101242.59;;;19.27;49.33
9110;BME280;4590;51.462;6.692;2023-07-13T02:09:51;101242.94;;;19.26;49.26
9110;BME280;4590;51.462;6.692;2023-07-13T02:12:16;101246.44;;;19.23;49.66
9110;BME280;4590;51.462;6.692;2023-07-13T02:14:41;101248.34;;;19.19;49.75
9110;BME280;4590;51.462;6.692;2023-07-13T02:17:09;101248.22;;;19.15;49.74
9110;BME280;4590;51.462;6.692;2023-07-13T02:19:35;101245.44;;;19.15;49.93
9110;BME280;4590;51.462;6.692;2023-07-13T02:22:00;101245.78;;;19.14;50.16
9110;BME280;4590;51.462;6.692;2023-07-13T02:24:25;101239.03;;;19.15;50.16
9110;BME280;4590;51.462;6.692;2023-07-13T02:26:51;101239.38;;;19.13;50.26
9110;BME280;4590;51.462;6.692;2023-07-13T02:29:16;101241.59;;;19.08;50.12
9110;BME280;4590;51.462;6.692;2023-07-13T02:31:41;101246.81;;;19.09;50.03
9110;BME280;4590;51.462;6.692;2023-07-13T02:34:07;101251.13;;;19.07;49.95
9110;BME280;4590;51.462;6.692;2023-07-13T02:36:32;101249.50;;;19.06;50.26
9110;BME280;4590;51.462;6.692;2023-07-13T02:39:01;101243.91;;;19.06;49.97
9110;BME280;4590;51.462;6.692;2023-07-13T02:41:26;101249.50;;;19.06;50.19
9110;BME280;4590;51.462;6.692;2023-07-13T02:43:52;101253.81;;;19.03;50.40
9110;BME280;4590;51.462;6.692;2023-07-13T02:46:17;101256.50;;;19.00;50.44
9110;BME280;4590;51.462;6.692;2023-07-13T02:48:44;101255.69;;;18.99;50.67
9110;BME280;4590;51.462;6.692;2023-07-13T02:51:09;101259.16;;;18.96;50.47
9110;BME280;4590;51.462;6.692;2023-07-13T02:53:35;101251.50;;;18.93;50.55
9110;BME280;4590;51.462;6.692;2023-07-13T02:56:01;101253.00;;;18.90;50.79
9110;BME280;4590;51.462;6.692;2023-07-13T02:58:26;101255.34;;;18.88;50.71
9110;BME280;4590;51.462;6.692;2023-07-13T03:00:51;101262.44;;;18.86;50.66
9110;BME280;4590;51.462;6.692;2023-07-13T03:03:17;101255.59;;;18.83;50.78
9110;BME280;4590;51.462;6.692;2023-07-13T03:05:44;101255.94;;;18.82;51.02
9110;BME280;4590;51.462;6.692;2023-07-13T03:08:10;101261.50;;;18.82;51.13
9110;BME280;4590;51.462;6.692;2023-07-13T03:10:35;101267.19;;;18.73;52.40
9110;BME280;4590;51.462;6.692;2023-07-13T03:13:01;101264.16;;;18.78;51.14
9110;BME280;4590;51.462;6.692;2023-07-13T03:15:27;101260.91;;;18.76;51.17
9110;BME280;4590;51.462;6.692;2023-07-13T03:17:52;101272.41;;;18.75;51.50
9110;BME280;4590;51.462;6.692;2023-07-13T03:20:18;101268.00;;;18.74;51.34
9110;BME280;4590;51.462;6.692;2023-07-13T03:22:43;101263.63;;;18.73;51.39
9110;BME280;4590;51.462;6.692;2023-07-13T03:25:08;101266.75;;;18.71;51.80
9110;BME280;4590;51.462;6.692;2023-07-13T03:27:34;101279.41;;;18.69;51.69
9110;BME280;4590;51.462;6.692;2023-07-13T03:29:59;101287.28;;;18.67;51.77
9110;BME280;4590;51.462;6.692;2023-07-13T03:32:24;101279.28;;;18.65;51.94
9110;BME280;4590;51.462;6.692;2023-07-13T03:34:50;101272.88;;;18.65;52.13
9110;BME280;4590;51.462;6.692;2023-07-13T03:37:15;101280.78;;;18.63;51.96
9110;BME280;4590;51.462;6.692;2023-07-13T03:39:40;101281.59;;;18.63;52.19
9110;BME280;4590;51.462;6.692;2023-07-13T03:42:06;101280.78;;;18.63;52.20
9110;BME280;4590;51.462;6.692;2023-07-13T03:44:32;101294.25;;;18.61;52.07
9110;BME280;4590;51.462;6.692;2023-07-13T03:46:57;101288.66;;;18.61;52.37
9110;BME280;4590;51.462;6.692;2023-07-13T03:49:22;101295.41;;;18.60;52.48
9110;BME280;4590;51.462;6.692;2023-07-13T03:51:48;101290.66;;;18.60;52.30
9110;BME280;4590;51.462;6.692;2023-07-13T03:54:13;101293.31;;;18.56;52.57
9110;BME280;4590;51.462;6.692;2023-07-13T03:56:38;101286.53;;;18.57;52.64
9110;BME280;4590;51.462;6.692;2023-07-13T03:59:04;101288.88;;;18.55;52.77
9110;BME280;4590;51.462;6.692;2023-07-13T04:01:29;101297.25;;;18.55;52.85
9110;BME280;4590;51.462;6.692;2023-07-13T04:03:55;101290.88;;;18.55;52.74
9110;BME280;4590;51.462;6.692;2023-07-13T04:06:31;101294.00;;;18.53;52.95
9110;BME280;4590;51.462;6.692;2023-07-13T04:08:58;101293.53;;;18.51;53.08
9110;BME280;4590;51.462;6.692;2023-07-13T04:11:29;101303.03;;;18.50;53.14
9110;BME280;4590;51.462;6.692;2023-07-13T04:13:54;101307.47;;;18.51;53.20
9110;BME280;4590;51.462;6.692;2023-07-13T04:16:20;101306.97;;;18.49;53.41
9110;BME280;4590;51.462;6.692;2023-07-13T04:18:46;101315.69;;;18.48;53.63
9110;BME280;4590;51.462;6.692;2023-07-13T04:21:13;101316.84;;;18.47;53.51
9110;BME280;4590;51.462;6.692;2023-07-13T04:23:39;101324.88;;;18.48;53.55
9110;BME280;4590;51.462;6.692;2023-07-13T04:26:05;101321.94;;;18.45;53.82
9110;BME280;4590;51.462;6.692;2023-07-13T04:28:31;101323.22;;;18.47;53.72
9110;BME280;4590;51.462;6.692;2023-07-13T04:30:57;101318.81;;;18.46;54.01
9110;BME280;4590;51.462;6.692;2023-07-13T04:33:23;101318.34;;;18.44;53.90
9110;BME280;4590;51.462;6.692;2023-07-13T04:35:52;101331.81;;;18.42;54.08
9110;BME280;4590;51.462;6.692;2023-07-13T04:38:22;101326.22;;;18.42;54.21
9110;BME280;4590;51.462;6.692;2023-07-13T04:40:47;101325.41;;;18.42;54.24
9110;BME280;4590;51.462;6.692;2023-07-13T04:43:13;101321.03;;;18.41;54.42
9110;BME280;4590;51.462;6.692;2023-07-13T04:45:38;101317.44;;;18.40;54.65
9110;BME280;4590;51.462;6.692;2023-07-13T04:48:04;101328.19;;;18.42;54.33
9110;BME280;4590;51.462;6.692;2023-07-13T04:50:29;101328.69;;;18.44;54.49
9110;BME280;4590;51.462;6.692;2023-07-13T04:52:54;101323.91;;;18.44;54.67
9110;BME280;4590;51.462;6.692;2023-07-13T04:55:20;101321.13;;;18.44;54.71
9110;BME280;4590;51.462;6.692;2023-07-13T04:57:46;101326.03;;;18.47;54.83
9110;BME280;4590;51.462;6.692;2023-07-13T05:00:12;101335.31;;;18.39;56.25
9110;BME280;4590;51.462;6.692;2023-07-13T05:02:38;101319.16;;;18.45;54.90
9110;BME280;4590;51.462;6.692;2023-07-13T05:05:05;101327.66;;;18.48;54.62
9110;BME280;4590;51.462;6.692;2023-07-13T05:07:30;101326.16;;;18.51;55.08
9110;BME280;4590;51.462;6.692;2023-07-13T05:09:58;101329.88;;;18.55;55.01
9110;BME280;4590;51.462;6.692;2023-07-13T05:12:23;101326.38;;;18.58;55.45
9110;BME280;4590;51.462;6.692;2023-07-13T05:14:48;101331.28;;;18.61;55.43
9110;BME280;4590;51.462;6.692;2023-07-13T05:17:14;101340.59;;;18.65;55.34
9110;BME280;4590;51.462;6.692;2023-07-13T05:19:39;101338.28;;;18.67;55.48
9110;BME280;4590;51.462;6.692;2023-07-13T05:22:05;101337.94;;;18.69;55.69
9110;BME280;4590;51.462;6.692;2023-07-13T05:24:30;101338.88;;;18.73;55.71
9110;BME280;4590;51.462;6.692;2023-07-13T05:26:56;101336.78;;;18.70;55.96
9110;BME280;4590;51.462;6.692;2023-07-13T05:29:21;101348.63;;;18.79;55.55
9110;BME280;4590;51.462;6.692;2023-07-13T05:31:47;101342.47;;;18.85;55.73
9110;BME280;4590;51.462;6.692;2023-07-13T05:34:13;101351.88;;;18.93;55.93
9110;BME280;4590;51.462;6.692;2023-07-13T05:36:38;101350.72;;;19.06;55.99
9110;BME280;4590;51.462;6.692;2023-07-13T05:39:04;101349.56;;;19.19;56.17
9110;BME280;4590;51.462;6.692;2023-07-13T05:41:29;101354.06;;;19.36;55.93
9110;BME280;4590;51.462;6.692;2023-07-13T05:43:55;101353.84;;;19.53;55.97
9110;BME280;4590;51.462;6.692;2023-07-13T05:46:20;101353.69;;;19.74;55.70
9110;BME280;4590;51.462;6.692;2023-07-13T05:48:46;101361.31;;;19.89;55.21
9110;BME280;4590;51.462;6.692;2023-07-13T05:51:11;101360.72;;;19.96;54.85
9110;BME280;4590;51.462;6.692;2023-07-13T05:53:36;101362.13;;;20.18;54.49
9110;BME280;4590;51.462;6.692;2023-07-13T05:56:01;101355.00;;;20.20;54.58
9110;BME280;4590;51.462;6.692;2023-07-13T05:58:27;101368.44;;;20.43;54.34
9110;BME280;4590;51.462;6.692;2023-07-13T06:01:00;101370.69;;;20.53;53.78
9110;BME280;4590;51.462;6.692;2023-07-13T06:03:26;101382.63;;;20.65;53.69
9110;BME280;4590;51.462;6.692;2023-07-13T06:05:51;101381.53;;;20.70;53.65
9110;BME280;4590;51.462;6.692;2023-07-13T06:08:16;101392.53;;;20.79;53.31
9110;BME280;4590;51.462;6.692;2023-07-13T06:10:43;101397.16;;;20.87;53.32
9110;BME280;4590;51.462;6.692;2023-07-13T06:13:08;101394.09;;;20.92;52.82
9110;BME280;4590;51.462;6.692;2023-07-13T06:15:33;101396.00;;;20.88;52.81
9110;BME280;4590;51.462;6.692;2023-07-13T06:17:58;101401.50;;;20.84;52.81
9110;BME280;4590;51.462;6.692;2023-07-13T06:20:24;101399.13;;;20.71;52.91
9110;BME280;4590;51.462;6.692;2023-07-13T06:22:49;101403.31;;;20.77;52.74
9110;BME280;4590;51.462;6.692;2023-07-13T06:25:14;101399.22;;;20.58;53.13
9110;BME280;4590;51.462;6.692;2023-07-13T06:27:39;101415.00;;;20.66;52.97
9110;BME280;4590;51.462;6.692;2023-07-13T06:30:05;101407.31;;;20.63;53.09
9110;BME280;4590;51.462;6.692;2023-07-13T06:32:30;101417.41;;;20.52;54.08
9110;BME280;4590;51.462;6.692;2023-07-13T06:34:56;101421.22;;;20.60;53.04
9110;BME280;4590;51.462;6.692;2023-07-13T06:37:21;101410.19;;;20.51;54.11
9110;BME280;4590;51.462;6.692;2023-07-13T06:39:46;101422.84;;;20.61;53.30
9110;BME280;4590;51.462;6.692;2023-07-13T06:42:11;101417.34;;;20.64;53.27
9110;BME280;4590;51.462;6.692;2023-07-13T06:44:36;101427.88;;;20.55;54.23
9110;BME280;4590;51.462;6.692;2023-07-13T06:47:02;101422.56;;;20.66;53.19
9110;BME280;4590;51.462;6.692;2023-07-13T06:49:27;101427.19;;;20.58;54.25
9110;BME280;4590;51.462;6.692;2023-07-13T06:51:52;101428.28;;;20.70;53.50
9110;BME280;4590;51.462;6.692;2023-07-13T06:54:17;101433.22;;;20.60;54.01
9110;BME280;4590;51.462;6.692;2023-07-13T06:56:43;101435.03;;;20.69;53.35
9110;BME280;4590;51.462;6.692;2023-07-13T06:59:08;101443.28;;;20.49;54.39
9110;BME280;4590;51.462;6.692;2023-07-13T07:01:33;101430.44;;;20.60;53.66
9110;BME280;4590;51.462;6.692;2023-07-13T07:03:59;101441.75;;;20.52;54.93
9110;BME280;4590;51.462;6.692;2023-07-13T07:06:24;101438.06;;;20.63;53.59
9110;BME280;4590;51.462;6.692;2023-07-13T07:08:49;101433.94;;;20.57;54.52
9110;BME280;4590;51.462;6.692;2023-07-13T07:11:21;101445.50;;;20.72;54.00
9110;BME280;4590;51.462;6.692;2023-07-13T07:13:51;101443.16;;;20.74;53.63
9110;BME280;4590;51.462;6.692;2023-07-13T07:16:17;101439.72;;;20.80;53.61
9110;BME280;4590;51.462;6.692;2023-07-13T07:18:42;101445.50;;;20.72;54.08
9110;BME280;4590;51.462;6.692;2023-07-13T07:21:08;101446.69;;;20.86;53.72
9110;BME280;4590;51.462;6.692;2023-07-13T07:23:33;101442.38;;;20.89;53.39
9110;BME280;4590;51.462;6.692;2023-07-13T07:25:58;101448.50;;;20.94;53.46
9110;BME280;4590;51.462;6.692;2023-07-13T07:28:24;101455.38;;;20.97;53.42
9110;BME280;4590;51.462;6.692;2023-07-13T07:30:52;101452.75;;;20.88;54.02
9110;BME280;4590;51.462;6.692;2023-07-13T07:33:17;101457.34;;;20.96;53.00
9110;BME280;4590;51.462;6.692;2023-07-13T07:35:43;101458.63;;;20.99;53.33
9110;BME280;4590;51.462;6.692;2023-07-13T07:38:08;101458.00;;;20.90;54.26
9110;BME280;4590;51.462;6.692;2023-07-13T07:40:37;101455.81;;;20.99;53.40
9110;BME280;4590;51.462;6.692;2023-07-13T07:43:03;101450.59;;;20.97;53.23
9110;BME280;4590;51.462;6.692;2023-07-13T07:45:28;101453.03;;;20.99;53.20
9110;BME280;4590;51.462;6.692;2023-07-13T07:47:53;101455.38;;;20.97;53.60
9110;BME280;4590;51.462;6.692;2023-07-13T07:50:20;101453.59;;;21.05;53.20
9110;BME280;4590;51.462;6.692;2023-07-13T07:52:45;101454.09;;;21.10;52.75
9110;BME280;4590;51.462;6.692;2023-07-13T07:55:10;101456.66;;;21.15;52.77
9110;BME280;4590;51.462;6.692;2023-07-13T07:57:36;101462.31;;;20.87;53.48
9110;BME280;4590;51.462;6.692;2023-07-13T08:00:01;101451.75;;;20.96;53.14
9110;BME280;4590;51.462;6.692;2023-07-13T08:02:26;101456.91;;;21.10;53.03
9110;BME280;4590;51.462;6.692;2023-07-13T08:04:52;101455.66;;;21.08;52.85
9110;BME280;4590;51.462;6.692;2023-07-13T08:07:17;101454.03;;;21.07;53.26
9110;BME280;4590;51.462;6.692;2023-07-13T08:09:43;101446.09;;;21.09;53.00
9110;BME280;4590;51.462;6.692;2023-07-13T08:12:08;101446.38;;;21.19;52.96
9110;BME280;4590;51.462;6.692;2023-07-13T08:14:33;101441.88;;;21.30;53.01
9110;BME280;4590;51.462;6.692;2023-07-13T08:16:59;101445.84;;;21.29;53.28
9110;BME280;4590;51.462;6.692;2023-07-13T08:19:24;101442.41;;;21.52;52.66
9110;BME280;4590;51.462;6.692;2023-07-13T08:21:49;101450.44;;;21.53;52.92
9110;BME280;4590;51.462;6.692;2023-07-13T08:24:15;101439.66;;;21.71;52.38
9110;BME280;4590;51.462;6.692;2023-07-13T08:26:40;101450.56;;;21.76;52.27
9110;BME280;4590;51.462;6.692;2023-07-13T08:29:06;101442.56;;;21.94;52.20
9110;BME280;4590;51.462;6.692;2023-07-13T08:31:31;101447.34;;;21.93;52.04
9110;BME280;4590;51.462;6.692;2023-07-13T08:33:56;101447.22;;;22.05;51.85
9110;BME280;4590;51.462;6.692;2023-07-13T08:36:21;101440.31;;;21.99;51.55
9110;BME280;4590;51.462;6.692;2023-07-13T08:38:47;101445.53;;;22.20;51.62
9110;BME280;4590;51.462;6.692;2023-07-13T08:41:14;101450.84;;;22.06;51.11
9110;BME280;4590;51.462;6.692;2023-07-13T08:43:41;101442.63;;;22.32;51.02
9110;BME280;4590;51.462;6.692;2023-07-13T08:48:58;101437.13;;;22.39;51.20
9110;BME280;4590;51.462;6.692;2023-07-13T08:51:36;101437.75;;;22.49;50.90
9110;BME280;4590;51.462;6.692;2023-07-13T08:54:18;101432.78;;;22.61;50.96
9110;BME280;4590;51.462;6.692;2023-07-13T08:56:45;101438.56;;;22.72;51.03
9110;BME280;4590;51.462;6.692;2023-07-13T08:59:14;101433.84;;;22.76;50.57
9110;BME280;4590;51.462;6.692;2023-07-13T09:01:59;101437.50;;;22.57;49.74
9110;BME280;4590;51.462;6.692;2023-07-13T09:04:35;101438.75;;;22.79;50.11
9110;BME280;4590;51.462;6.692;2023-07-13T09:07:42;101439.31;;;22.88;49.72
9110;BME280;4590;51.462;6.692;2023-07-13T09:10:30;101440.69;;;22.98;49.58
9110;BME280;4590;51.462;6.692;2023-07-13T09:16:04;101437.88;;;23.21;49.95
9110;BME280;4590;51.462;6.692;2023-07-13T09:18:36;101449.25;;;23.28;49.55
9110;BME280;4590;51.462;6.692;2023-07-13T09:21:10;101445.28;;;23.32;49.83
9110;BME280;4590;51.462;6.692;2023-07-13T09:23:38;101443.03;;;23.41;49.50
9110;BME280;4590;51.462;6.692;2023-07-13T09:26:05;101449.94;;;23.48;49.24
9110;BME280;4590;51.462;6.692;2023-07-13T09:28:39;101454.53;;;23.56;48.56
9110;BME280;4590;51.462;6.692;2023-07-13T09:31:28;101451.00;;;23.62;48.45
9110;BME280;4590;51.462;6.692;2023-07-13T09:33:58;101452.81;;;23.74;48.95
9110;BME280;4590;51.462;6.692;2023-07-13T09:36:24;101452.31;;;23.68;48.20
9110;BME280;4590;51.462;6.692;2023-07-13T09:41:57;101444.75;;;23.72;47.57
9110;BME280;4590;51.462;6.692;2023-07-13T09:44:38;101454.38;;;23.71;47.72
9110;BME280;4590;51.462;6.692;2023-07-13T09:47:19;101450.00;;;23.74;47.87
9110;BME280;4590;51.462;6.692;2023-07-13T09:49:47;101449.75;;;23.86;48.24
9110;BME280;4590;51.462;6.692;2023-07-13T09:52:15;101449.53;;;23.98;48.20
9110;BME280;4590;51.462;6.692;2023-07-13T09:54:45;101448.16;;;24.15;47.56
9110;BME280;4590;51.462;6.692;2023-07-13T09:57:17;101449.25;;;24.37;47.59
9110;BME280;4590;51.462;6.692;2023-07-13T09:59:45;101445.03;;;24.54;46.89
9110;BME280;4590;51.462;6.692;2023-07-13T10:02:28;101442.75;;;24.66;45.72
9110;BME280;4590;51.462;6.692;2023-07-13T10:04:59;101453.69;;;24.75;45.08
9110;BME280;4590;51.462;6.692;2023-07-13T10:07:25;101453.78;;;24.82;45.52
9110;BME280;4590;51.462;6.692;2023-07-13T10:09:54;101451.03;;;24.89;45.26
9110;BME280;4590;51.462;6.692;2023-07-13T10:12:20;101452.81;;;25.04;45.41
9110;BME280;4590;51.462;6.692;2023-07-13T10:14:48;101455.09;;;25.32;45.42
9110;BME280;4590;51.462;6.692;2023-07-13T10:17:18;101459.25;;;25.52;43.32
9110;BME280;4590;51.462;6.692;2023-07-13T10:19:44;101452.13;;;25.66;43.11
9110;BME280;4590;51.462;6.692;2023-07-13T10:22:14;101447.34;;;25.70;42.57
9110;BME280;4590;51.462;6.692;2023-07-13T10:24:46;101449.78;;;25.75;42.59
9110;BME280;4590;51.462;6.692;2023-07-13T10:27:20;101446.94;;;25.71;41.42
9110;BME280;4590;51.462;6.692;2023-07-13T10:29:56;101445.03;;;25.86;41.66
9110;BME280;4590;51.462;6.692;2023-07-13T10:32:26;101445.09;;;26.00;42.48
9110;BME280;4590;51.462;6.692;2023-07-13T10:34:51;101453.63;;;26.14;41.78
9110;BME280;4590;51.462;6.692;2023-07-13T10:37:26;101450.94;;;26.29;40.97
9110;BME280;4590;51.462;6.692;2023-07-13T10:39:54;101453.38;;;26.37;41.46
9110;BME280;4590;51.462;6.692;2023-07-13T10:42:40;101452.50;;;26.30;39.98
9110;BME280;4590;51.462;6.692;2023-07-13T10:45:18;101455.75;;;26.32;40.02
9110;BME280;4590;51.462;6.692;2023-07-13T10:47:45;101452.56;;;26.40;40.90
9110;BME280;4590;51.462;6.692;2023-07-13T10:50:25;101440.50;;;26.43;40.65
9110;BME280;4590;51.462;6.692;2023-07-13T10:52:55;101455.84;;;26.53;40.39
9110;BME280;4590;51.462;6.692;2023-07-13T10:55:41;101458.28;;;26.65;39.87
9110;BME280;4590;51.462;6.692;2023-07-13T10:58:21;101450.25;;;26.71;39.15
9110;BME280;4590;51.462;6.692;2023-07-13T11:00:51;101455.50;;;26.83;40.06
9110;BME280;4590;51.462;6.692;2023-07-13T11:03:21;101452.75;;;27.04;40.43
9110;BME280;4590;51.462;6.692;2023-07-13T11:06:11;101459.19;;;27.08;39.36
9110;BME280;4590;51.462;6.692;2023-07-13T11:08:51;101456.78;;;27.24;40.11
9110;BME280;4590;51.462;6.692;2023-07-13T11:18:49;101447.13;;;27.57;37.96
9110;BME280;4590;51.462;6.692;2023-07-13T11:21:21;101448.75;;;27.69;37.71
9110;BME280;4590;51.462;6.692;2023-07-13T11:23:54;101442.28;;;27.69;37.31
9110;BME280;4590;51.462;6.692;2023-07-13T11:31:54;101439.00;;;27.77;35.99
9110;BME280;4590;51.462;6.692;2023-07-13T11:34:27;101435.78;;;27.82;35.85
9110;BME280;4590;51.462;6.692;2023-07-13T11:36:56;101439.81;;;27.85;36.57
9110;BME280;4590;51.462;6.692;2023-07-13T11:39:27;101443.06;;;27.76;36.46
9110;BME280;4590;51.462;6.692;2023-07-13T11:41:58;101429.34;;;27.68;35.84
9110;BME280;4590;51.462;6.692;2023-07-13T11:44:26;101434.59;;;27.58;36.35
9110;BME280;4590;51.462;6.692;2023-07-13T11:46:54;101426.53;;;27.53;35.77
9110;BME280;4590;51.462;6.692;2023-07-13T11:49:22;101437.81;;;27.50;36.10
9110;BME280;4590;51.462;6.692;2023-07-13T11:51:48;101430.16;;;27.43;35.91
9110;BME280;4590;51.462;6.692;2023-07-13T11:54:29;101435.78;;;27.40;36.04
9110;BME280;4590;51.462;6.692;2023-07-13T11:57:05;101421.28;;;27.27;35.74
9110;BME280;4590;51.462;6.692;2023-07-13T11:59:32;101443.88;;;27.23;36.60
9110;BME280;4590;51.462;6.692;2023-07-13T12:01:58;101426.13;;;27.19;36.09
9110;BME280;4590;51.462;6.692;2023-07-13T12:04:29;101433.00;;;27.15;36.34
9110;BME280;4590;51.462;6.692;2023-07-13T12:07:15;101428.56;;;27.03;35.45
9110;BME280;4590;51.462;6.692;2023-07-13T12:09:42;101424.91;;;27.03;36.36
9110;BME280;4590;51.462;6.692;2023-07-13T12:12:17;101425.28;;;26.90;35.87
9110;BME280;4590;51.462;6.692;2023-07-13T12:14:43;101426.06;;;26.80;36.33
9110;BME280;4590;51.462;6.692;2023-07-13T12:17:22;101422.03;;;26.81;36.43
9110;BME280;4590;51.462;6.692;2023-07-13T12:19:49;101404.25;;;26.77;36.41
9110;BME280;4590;51.462;6.692;2023-07-13T12:22:17;101426.06;;;26.73;36.81
9110;BME280;4590;51.462;6.692;2023-07-13T12:24:45;101425.25;;;26.69;36.57
9110;BME280;4590;51.462;6.692;2023-07-13T12:27:28;101428.81;;;26.52;35.70
9110;BME280;4590;51.462;6.692;2023-07-13T12:30:15;101429.19;;;26.47;36.22
9110;BME280;4590;51.462;6.692;2023-07-13T12:32:58;101433.16;;;26.28;35.79
9110;BME280;4590;51.462;6.692;2023-07-13T12:35:26;101439.56;;;26.21;36.54
9110;BME280;4590;51.462;6.692;2023-07-13T12:37:57;101438.31;;;26.08;36.15
9110;BME280;4590;51.462;6.692;2023-07-13T12:40:27;101442.69;;;25.95;36.80
9110;BME280;4590;51.462;6.692;2023-07-13T12:42:53;101439.81;;;25.88;37.04
9110;BME280;4590;51.462;6.692;2023-07-13T12:45:21;101441.75;;;25.77;37.27
9110;BME280;4590;51.462;6.692;2023-07-13T12:47:49;101444.91;;;25.65;37.38
9110;BME280;4590;51.462;6.692;2023-07-13T12:50:18;101454.44;;;25.53;37.44
9110;BME280;4590;51.462;6.692;2023-07-13T12:52:44;101460.84;;;25.46;39.85
9110;BME280;4590;51.462;6.692;2023-07-13T12:55:17;101469.19;;;25.36;41.12
9110;BME280;4590;51.462;6.692;2023-07-13T12:57:56;101473.09;;;25.21;42.51
9110;BME280;4590;51.462;6.692;2023-07-13T13:00:29;101471.84;;;25.14;43.55
9110;BME280;4590;51.462;6.692;2023-07-13T13:02:58;101468.13;;;25.07;43.08
9110;BME280;4590;51.462;6.692;2023-07-13T13:05:29;101472.50;;;25.01;43.11
9110;BME280;4590;51.462;6.692;2023-07-13T13:07:55;101465.22;;;24.96;43.00
9110;BME280;4590;51.462;6.692;2023-07-13T13:10:20;101466.03;;;24.97;42.74
9110;BME280;4590;51.462;6.692;2023-07-13T13:12:46;101465.28;;;25.03;42.40
9110;BME280;4590;51.462;6.692;2023-07-13T13:15:13;101452.47;;;25.09;42.07
9110;BME280;4590;51.462;6.692;2023-07-13T13:17:38;101459.00;;;25.17;41.50
9110;BME280;4590;51.462;6.692;2023-07-13T13:20:22;101461.38;;;25.18;40.20
9110;BME280;4590;51.462;6.692;2023-07-13T13:22:48;101456.72;;;25.33;40.64
9110;BME280;4590;51.462;6.692;2023-07-13T13:25:14;101451.16;;;25.44;40.35
9110;BME280;4590;51.462;6.692;2023-07-13T13:27:43;101451.63;;;25.53;39.95
9110;BME280;4590;51.462;6.692;2023-07-13T13:30:15;101450.44;;;25.58;40.01
9110;BME280;4590;51.462;6.692;2023-07-13T13:32:42;101450.94;;;25.63;39.83
9110;BME280;4590;51.462;6.692;2023-07-13T13:35:15;101456.97;;;25.62;39.62